📊 Raw Sensor Data
Showing records 32876 to 32900 of 84,739 total
| ID | Distance (ft) | Battery V | Battery A | Int Temp (°F) | Int Humid (%) | Ext Temp (°F) | Solar V | RSSI | SNR | Time Stamp |
|---|---|---|---|---|---|---|---|---|---|---|
| 51876 | 15.0 | 4.06 | 5 | 77 | 41 | 78 | 5.10 | -74 | 8 | 09/13/2025 10:30 AM |
| 51875 | 13.9 | 4.01 | 0 | 76 | 42 | 78 | 5.10 | -72 | 7 | 09/13/2025 10:15 AM |
| 51874 | 15.0 | 4.01 | 5 | 74 | 41 | 77 | 5.10 | -74 | 8 | 09/13/2025 10:00 AM |
| 51873 | 13.5 | 4.01 | 5 | 73 | 41 | 76 | 5.10 | -73 | 7 | 09/13/2025 09:45 AM |
| 51872 | 14.0 | 4.01 | 0 | 71 | 41 | 74 | 5.10 | -74 | 7 | 09/13/2025 09:30 AM |
| 51871 | 13.7 | 4.01 | 5 | 69 | 41 | 73 | 5.10 | -74 | 8 | 09/13/2025 09:15 AM |
| 51870 | 14.9 | 4.01 | 5 | 66 | 41 | 71 | 5.10 | -74 | 8 | 09/13/2025 08:45 AM |
| 51869 | 14.8 | 4.12 | 5 | 64 | 41 | 68 | 5.10 | -74 | 8 | 09/13/2025 08:30 AM |
| 51868 | 14.0 | 4.01 | 0 | 63 | 41 | 68 | 5.10 | -74 | 8 | 09/13/2025 08:15 AM |
| 51867 | 14.6 | 4.14 | 57 | 61 | 41 | 68 | 4.50 | -72 | 8 | 09/13/2025 08:00 AM |
| 51866 | 14.7 | 4.07 | 49 | 59 | 42 | 66 | 4.50 | -71 | 7 | 09/13/2025 07:45 AM |
| 51865 | 14.6 | 4.01 | 11 | 58 | 43 | 64 | 4.50 | -72 | 8 | 09/13/2025 07:30 AM |
| 51864 | 14.7 | 4.02 | 7 | 57 | 43 | 61 | 4.50 | -72 | 8 | 09/13/2025 07:15 AM |
| 51863 | 14.6 | 3.94 | -6 | 56 | 43 | 58 | 4.50 | -72 | 8 | 09/13/2025 07:00 AM |
| 51862 | 14.6 | 3.93 | -10 | 55 | 44 | 56 | 3.30 | -71 | 8 | 09/13/2025 06:45 AM |
| 51861 | 14.6 | 3.94 | -5 | 55 | 43 | 57 | 0.40 | -72 | 7 | 09/13/2025 06:30 AM |
| 51860 | 14.6 | 4.00 | -5 | 55 | 44 | 56 | 0.00 | -72 | 8 | 09/13/2025 06:15 AM |
| 51859 | 14.6 | 3.94 | -5 | 55 | 44 | 56 | 0.00 | -71 | 8 | 09/13/2025 06:00 AM |
| 51858 | 14.6 | 3.94 | -5 | 55 | 44 | 56 | 0.00 | -70 | 8 | 09/13/2025 05:45 AM |
| 51857 | 14.6 | 3.94 | -5 | 55 | 44 | 56 | 0.00 | -70 | 8 | 09/13/2025 05:30 AM |
| 51856 | 14.7 | 3.94 | -5 | 55 | 44 | 56 | 0.10 | -72 | 8 | 09/13/2025 05:15 AM |
| 51855 | 14.6 | 3.94 | -5 | 56 | 44 | 56 | 0.00 | -70 | 8 | 09/13/2025 05:00 AM |
| 51854 | 14.6 | 4.00 | -5 | 56 | 44 | 57 | 0.00 | -70 | 8 | 09/13/2025 04:45 AM |
| 51853 | 14.7 | 4.00 | -5 | 57 | 44 | 57 | 0.10 | -71 | 8 | 09/13/2025 04:30 AM |
| 51852 | 14.6 | 4.00 | -5 | 57 | 44 | 58 | 0.00 | -71 | 9 | 09/13/2025 04:15 AM |